createdAt,value
2019-01-03T08:33:58.387Z,83.02
2019-01-03T08:37:17.300Z,83.23
2019-01-03T08:40:28.532Z,83.57
2019-01-03T08:43:50.296Z,83.87
2019-01-03T08:46:41.601Z,83.78
2019-01-03T08:49:44.683Z,83.50
2019-01-03T08:52:43.436Z,83.33
2019-01-03T08:55:47.899Z,83.37
2019-01-03T08:58:41.205Z,83.40
2019-01-03T09:02:02.678Z,83.33
2019-01-03T09:05:04.613Z,83.24
2019-01-03T09:08:33.682Z,83.40
2019-01-03T09:11:29.468Z,83.42
2019-01-03T09:14:39.763Z,83.37
2019-01-03T09:17:32.344Z,83.25
2019-01-03T09:20:23.582Z,83.28
2019-01-03T09:23:34.273Z,83.37
2019-01-03T09:26:42.165Z,83.64
2019-01-03T09:29:57.252Z,84.08
2019-01-03T09:32:59.555Z,84.02
2019-01-03T09:36:06.244Z,83.87
2019-01-03T09:38:58.755Z,83.89
2019-01-03T09:41:56.374Z,84.11
2019-01-03T09:44:46.583Z,84.43
2019-01-03T09:47:20.348Z,84.42
2019-01-03T09:49:54.896Z,84.53
2019-01-03T09:52:30.565Z,84.81
2019-01-03T09:55:04.001Z,84.88
2019-01-03T09:57:55.537Z,84.80
2019-01-03T10:00:28.159Z,84.79
2019-01-03T10:03:19.025Z,84.85
2019-01-03T10:06:04.062Z,84.99
2019-01-03T10:08:39.103Z,85.09
2019-01-03T10:11:13.028Z,85.38
2019-01-03T10:13:49.299Z,85.62
2019-01-03T10:16:23.558Z,85.67
2019-01-03T10:19:47.425Z,85.67
2019-01-03T10:23:10.826Z,85.63
2019-01-03T10:25:44.690Z,85.62
2019-01-03T10:28:16.980Z,85.68
2019-01-03T10:31:11.402Z,85.75
2019-01-03T10:33:44.293Z,85.71
2019-01-03T10:36:24.111Z,85.60
2019-01-03T10:38:53.242Z,85.39
2019-01-03T10:41:26.775Z,85.13
2019-01-03T10:44:00.858Z,84.75
2019-01-03T10:46:53.049Z,84.25
2019-01-03T10:49:27.478Z,83.43
2019-01-03T10:52:01.117Z,82.79
2019-01-03T10:54:34.689Z,82.11
2019-01-03T10:57:08.462Z,81.49
2019-01-03T10:59:55.954Z,81.08
2019-01-03T11:02:28.949Z,80.56
2019-01-03T11:05:01.178Z,80.31
2019-01-03T11:07:33.743Z,80.19
2019-01-03T11:10:07.171Z,80.17
2019-01-03T11:12:40.481Z,79.88
2019-01-03T11:15:14.146Z,79.39
2019-01-03T11:17:48.228Z,79.07
2019-01-03T11:20:22.017Z,78.88
2019-01-03T11:23:12.654Z,78.91
2019-01-03T11:26:11.233Z,79.24
2019-01-03T11:29:02.631Z,79.63
2019-01-03T11:31:54.537Z,79.69
2019-01-03T11:34:28.069Z,79.84
2019-01-03T11:37:02.153Z,80.02
2019-01-03T11:39:39.745Z,80.19
2019-01-03T11:42:19.320Z,80.05
2019-01-03T11:44:53.602Z,79.66
2019-01-03T11:47:28.248Z,79.19
2019-01-03T11:50:14.734Z,79.06
2019-01-03T11:52:48.673Z,78.64
2019-01-03T11:55:23.497Z,78.57
2019-01-03T11:57:57.641Z,78.11
2019-01-03T12:00:31.612Z,78.04
2019-01-03T12:03:05.332Z,78.18
2019-01-03T12:05:50.864Z,77.97
2019-01-03T12:08:22.860Z,78.08
2019-01-03T12:10:57.177Z,78.04
2019-01-03T12:13:43.096Z,77.83
2019-01-03T12:26:57.148Z,76.87
2019-01-03T12:29:30.605Z,76.86
2019-01-03T12:32:04.452Z,76.66
2019-01-03T12:34:38.434Z,76.30
2019-01-03T12:37:31.007Z,76.40
2019-01-03T12:40:15.826Z,76.28
2019-01-03T12:43:06.738Z,76.37
2019-01-03T12:45:58.114Z,76.45
2019-01-03T12:48:31.764Z,75.88
2019-01-03T12:51:05.061Z,75.89
2019-01-03T12:53:38.822Z,75.92
2019-01-03T12:56:12.152Z,75.99
2019-01-03T12:58:45.992Z,76.11
2019-01-03T13:01:18.949Z,76.29
2019-01-03T13:04:03.000Z,76.61
2019-01-03T13:06:36.389Z,76.68
2019-01-03T13:09:17.471Z,76.70
2019-01-03T13:11:50.611Z,76.82
2019-01-03T13:14:34.910Z,76.96
2019-01-03T13:17:08.479Z,76.72
2019-01-03T13:19:42.059Z,76.13
2019-01-03T13:22:28.958Z,74.47
2019-01-03T13:25:03.804Z,74.12
2019-01-03T13:27:37.880Z,74.21
2019-01-03T13:30:11.976Z,74.31
2019-01-03T13:33:05.120Z,74.68
2019-01-03T13:35:38.624Z,74.87
2019-01-03T13:38:12.059Z,75.01
2019-01-03T13:40:45.139Z,74.92
2019-01-03T13:43:18.481Z,75.27
2019-01-03T13:45:52.465Z,75.50
2019-01-03T13:48:37.593Z,76.03
2019-01-03T13:51:11.526Z,76.27
2019-01-03T13:53:57.271Z,76.33
2019-01-03T13:56:30.699Z,76.67
2019-01-03T13:59:03.036Z,76.80
2019-01-03T14:01:35.449Z,76.90
2019-01-03T14:04:09.605Z,77.16
2019-01-03T14:06:43.378Z,77.54
2019-01-03T14:09:27.759Z,77.89
2019-01-03T14:12:18.040Z,78.21
2019-01-03T14:15:01.993Z,78.18
2019-01-03T14:17:37.116Z,78.11
2019-01-03T14:20:12.685Z,78.29
2019-01-03T14:22:45.559Z,78.47
2019-01-03T14:25:19.358Z,78.56
2019-01-03T14:27:53.141Z,78.68
2019-01-03T14:30:26.795Z,78.91
2019-01-03T14:33:00.683Z,79.12
2019-01-03T14:35:35.857Z,79.31
2019-01-03T14:38:10.161Z,79.52
2019-01-03T14:40:44.399Z,79.73
2019-01-03T14:43:17.731Z,79.98
2019-01-03T14:45:51.314Z,80.26
2019-01-03T14:48:24.973Z,80.44
2019-01-03T14:50:58.598Z,80.72
2019-01-03T14:53:32.799Z,80.90
2019-01-03T14:56:18.544Z,81.14
2019-01-03T14:58:53.149Z,81.23
2019-01-03T15:01:43.891Z,81.47
2019-01-03T15:04:35.157Z,81.58
2019-01-03T15:07:08.632Z,81.68
2019-01-03T15:09:43.176Z,81.91
2019-01-03T15:12:17.151Z,82.02
2019-01-03T15:14:50.511Z,82.11
2019-01-03T15:17:28.313Z,82.10
2019-01-03T15:20:13.720Z,81.73
2019-01-03T15:22:58.880Z,81.40
2019-01-03T15:25:32.532Z,81.21
2019-01-03T15:28:09.547Z,81.47
2019-01-03T15:30:50.698Z,81.82
2019-01-03T15:33:24.185Z,82.20
2019-01-03T15:36:00.186Z,82.48
2019-01-03T15:38:46.122Z,82.64
2019-01-03T15:41:18.502Z,82.80
2019-01-03T15:43:52.081Z,83.12
2019-01-03T15:46:29.425Z,83.42
2019-01-03T15:49:03.310Z,83.49
2019-01-03T15:52:11.960Z,83.66
2019-01-03T15:55:06.532Z,83.73
2019-01-03T15:58:08.572Z,83.81
2019-01-03T16:00:44.202Z,83.61
2019-01-03T16:03:17.935Z,83.52
2019-01-03T16:06:36.710Z,83.43
2019-01-03T16:09:08.383Z,83.63
2019-01-03T16:11:43.168Z,83.92
2019-01-03T16:14:18.033Z,83.96
2019-01-03T16:17:03.854Z,83.94
2019-01-03T16:19:55.662Z,83.94
2019-01-03T16:22:30.271Z,83.98
2019-01-03T16:25:04.254Z,84.08
2019-01-03T16:27:37.907Z,84.05
2019-01-03T16:30:14.221Z,84.00
2019-01-03T16:32:49.359Z,83.75
2019-01-03T16:35:23.780Z,83.64
2019-01-03T16:37:58.098Z,83.55
2019-01-03T16:40:43.403Z,83.51
2019-01-03T16:43:33.376Z,83.69
2019-01-03T16:46:06.746Z,83.93
2019-01-03T16:52:30.661Z,83.95
2019-01-03T16:55:24.249Z,83.91
2019-01-03T16:58:58.242Z,83.87
2019-01-03T17:04:17.424Z,83.97
2019-01-03T17:06:51.969Z,84.02
2019-01-03T17:09:26.148Z,84.05
2019-01-03T17:12:00.012Z,84.12
2019-01-03T17:18:16.855Z,84.23
2019-01-03T17:20:50.716Z,84.27
2019-01-03T17:23:36.271Z,84.37
2019-01-03T17:26:31.549Z,84.39
2019-01-03T17:29:06.404Z,84.48
2019-01-03T17:31:57.725Z,84.62
2019-01-03T17:34:31.626Z,84.62
2019-01-03T17:37:09.419Z,84.59
2019-01-03T17:39:43.820Z,84.58
2019-01-03T17:42:18.404Z,84.77
2019-01-03T17:44:56.371Z,84.73
2019-01-03T17:47:50.174Z,84.62
2019-01-03T17:50:56.990Z,84.57
2019-01-03T17:57:33.012Z,84.66
2019-01-03T18:00:24.364Z,84.67
2019-01-03T18:03:08.930Z,84.66
2019-01-03T18:05:56.889Z,84.65
2019-01-03T18:08:49.413Z,84.70
2019-01-03T18:11:24.120Z,84.69
2019-01-03T18:13:58.510Z,84.83
2019-01-03T18:16:43.600Z,84.99
2019-01-03T18:19:30.355Z,84.99
2019-01-03T18:22:05.496Z,84.95
2019-01-03T18:24:39.710Z,84.97
2019-01-03T18:27:33.793Z,84.95
2019-01-03T18:30:08.462Z,84.99
2019-01-03T18:32:59.651Z,85.01
2019-01-03T18:35:33.587Z,84.99
2019-01-03T18:38:26.874Z,84.89
2019-01-03T18:41:00.886Z,84.80
2019-01-03T18:43:46.475Z,84.58
2019-01-03T18:46:20.814Z,84.51
2019-01-03T18:48:54.863Z,84.54
2019-01-03T18:51:28.744Z,84.58
2019-01-03T18:54:01.999Z,84.51
2019-01-03T18:56:35.422Z,84.49
2019-01-03T18:59:11.280Z,84.37
2019-01-03T19:01:46.415Z,84.25
2019-01-03T19:04:25.563Z,84.22
2019-01-03T19:06:59.687Z,84.18
2019-01-03T19:09:34.457Z,84.28
2019-01-03T19:12:07.699Z,84.31
2019-01-03T19:15:05.730Z,84.36
2019-01-03T19:17:39.600Z,84.43
2019-01-03T19:20:14.284Z,84.48
2019-01-03T19:22:48.800Z,84.49
2019-01-03T19:25:52.032Z,84.54
2019-01-03T19:28:38.797Z,84.48
2019-01-03T19:31:14.436Z,84.49
2019-01-03T19:34:07.002Z,84.40
2019-01-03T19:36:43.478Z,84.34
2019-01-03T19:39:17.335Z,84.42
2019-01-03T19:41:50.747Z,84.59
2019-01-03T19:44:24.555Z,84.62
2019-01-03T19:46:59.305Z,84.64
2019-01-03T19:49:33.118Z,84.69
2019-01-03T19:52:07.507Z,84.66
2019-01-03T19:55:00.536Z,84.68
2019-01-03T19:57:32.783Z,84.62
2019-01-03T20:00:22.885Z,84.56
2019-01-03T20:02:56.982Z,84.51
2019-01-03T20:05:47.812Z,84.38
2019-01-03T20:08:21.566Z,84.33
2019-01-03T20:11:06.903Z,84.15
2019-01-03T20:13:52.981Z,84.01
2019-01-03T20:16:44.061Z,83.77
2019-01-03T20:19:18.030Z,83.60
2019-01-03T20:22:03.247Z,83.54
2019-01-03T20:24:54.079Z,83.57
2019-01-03T20:27:33.589Z,83.65
2019-01-03T20:30:07.805Z,83.61
2019-01-03T20:32:42.622Z,83.62
2019-01-03T20:35:16.104Z,83.71
2019-01-03T20:37:49.110Z,83.74
2019-01-03T20:40:23.431Z,83.71
2019-01-03T20:42:57.412Z,83.84
2019-01-03T20:45:30.773Z,84.00
2019-01-03T20:48:16.581Z,84.05
2019-01-03T20:51:03.259Z,83.97
2019-01-03T20:53:37.415Z,83.87
2019-01-03T20:56:23.842Z,83.80
2019-01-03T21:01:55.824Z,83.67
2019-01-03T21:04:47.621Z,83.79
2019-01-03T21:07:31.906Z,83.84
2019-01-03T21:10:05.405Z,83.73
2019-01-03T21:13:01.860Z,83.50
2019-01-03T21:15:44.222Z,83.42
2019-01-03T21:18:21.423Z,83.36
2019-01-03T21:21:33.668Z,83.36
2019-01-03T21:24:15.584Z,83.28
2019-01-03T21:27:02.373Z,83.35
2019-01-03T21:36:47.774Z,83.88
2019-01-03T21:39:22.529Z,83.76
2019-01-03T21:42:01.276Z,83.62
2019-01-03T21:44:37.913Z,83.58
2019-01-03T21:47:12.091Z,83.61
2019-01-03T21:49:45.679Z,83.62
2019-01-03T21:52:38.515Z,83.79
2019-01-03T21:55:14.264Z,83.85
2019-01-03T21:58:03.645Z,83.93
2019-01-03T22:00:38.247Z,84.01
2019-01-03T22:03:12.192Z,84.42
2019-01-03T22:05:48.472Z,84.58
2019-01-03T22:08:24.786Z,84.69
2019-01-03T22:11:21.089Z,84.80
2019-01-03T22:14:04.010Z,84.72
2019-01-03T22:16:52.788Z,84.83
2019-01-03T22:19:48.729Z,84.57
2019-01-03T22:22:23.012Z,84.41
2019-01-03T22:24:57.319Z,84.34
2019-01-03T22:27:36.642Z,84.27
2019-01-03T22:30:17.968Z,84.13
2019-01-03T22:33:12.196Z,84.06
2019-01-03T22:35:48.032Z,84.00
2019-01-03T22:38:23.261Z,84.19
2019-01-03T22:40:56.629Z,84.33
2019-01-03T22:43:30.693Z,84.49
2019-01-03T22:46:16.841Z,84.63
2019-01-03T22:48:50.488Z,84.74
2019-01-03T22:51:26.421Z,84.71
2019-01-03T22:53:59.995Z,84.68
2019-01-03T22:56:32.552Z,84.44
2019-01-03T22:59:20.647Z,84.13
2019-01-03T23:01:54.134Z,83.85
2019-01-03T23:04:28.014Z,83.82
2019-01-03T23:07:03.127Z,83.78
2019-01-03T23:09:36.547Z,83.71
2019-01-03T23:12:10.415Z,83.58
2019-01-03T23:14:45.069Z,83.64
2019-01-03T23:17:33.323Z,83.60
2019-01-03T23:20:07.406Z,83.67
2019-01-03T23:22:42.025Z,83.61
2019-01-03T23:25:18.162Z,83.57
2019-01-03T23:28:10.139Z,83.79
2019-01-03T23:30:56.659Z,83.98
2019-01-03T23:33:38.097Z,84.06
2019-01-03T23:56:11.843Z,84.11
2019-01-03T23:58:46.211Z,84.05
